Terminal Aerodrome Forecast
Issued by NWS Jackson, MS

Home | Current Version | Previous Version | Text Only | Print | Product List | Glossary On
Versions: 1 2 3 4 5 6 7 8 9 10 11 12
292
FTUS44 KJAN 202327
TAFGLH
TAF
KGLH 202327Z 2100/2124 15009KT P6SM BKN100
     FM210500 15005KT 5SM SHRA BR BKN025 OVC050
     FM210900 22007KT 6SM -RA BR BKN015 OVC060
     FM211500 22006KT P6SM -SHRA BKN008 OVC050
     FM211800 32006KT P6SM -SHRA BKN015=

USA.gov is the U.S. government's official web portal to all federal, state and local government web resources and services.